createdAt,value
2019-03-16T19:27:41.329Z,21.47
2019-03-16T19:30:14.299Z,21.44
2019-03-16T19:32:42.906Z,21.45
2019-03-16T19:35:11.170Z,21.46
2019-03-16T19:37:39.633Z,21.44
2019-03-16T19:40:13.591Z,21.45
2019-03-16T19:42:41.799Z,21.45
2019-03-16T19:55:38.993Z,10.92
2019-03-16T19:58:07.951Z,9.89
2019-03-16T20:00:36.406Z,9.07
2019-03-16T20:03:04.915Z,8.60
2019-03-16T20:05:33.386Z,8.36
2019-03-16T20:08:01.866Z,8.19
2019-03-16T20:10:30.387Z,8.10
2019-03-16T20:12:58.821Z,8.04
2019-03-16T20:15:27.827Z,8.00
2019-03-16T20:17:56.286Z,7.88
2019-03-16T20:20:24.796Z,7.89
2019-03-16T20:22:53.776Z,7.90
2019-03-16T20:25:22.274Z,7.87
2019-03-16T20:27:50.740Z,7.81
2019-03-16T20:30:26.432Z,7.79
2019-03-16T20:33:02.502Z,7.78
2019-03-16T20:35:20.127Z,7.77
2019-03-16T20:37:48.321Z,7.75
2019-03-16T20:40:17.002Z,7.77
2019-03-16T20:42:45.250Z,7.79
2019-03-16T20:45:15.574Z,7.79
2019-03-16T20:47:44.279Z,7.90
2019-03-16T20:50:16.406Z,7.90
2019-03-16T20:52:44.760Z,7.89
2019-03-16T20:55:13.260Z,7.94
2019-03-16T20:57:41.593Z,7.88
2019-03-16T21:00:16.029Z,7.89
2019-03-16T21:02:44.316Z,8.04
2019-03-16T21:05:12.823Z,8.05
2019-03-16T21:07:41.016Z,8.05
2019-03-16T21:10:10.587Z,8.08
2019-03-16T21:12:38.783Z,8.12
2019-03-16T21:15:14.889Z,8.12
2019-03-16T21:17:43.305Z,8.09
2019-03-16T21:20:15.314Z,8.15
2019-03-16T21:22:43.505Z,8.18
2019-03-16T21:25:13.043Z,8.16
2019-03-16T21:27:41.299Z,8.26
2019-03-16T21:30:12.709Z,8.26
2019-03-16T21:32:41.871Z,8.29
2019-03-16T21:35:11.700Z,8.29
2019-03-16T21:37:39.895Z,8.32
2019-03-16T21:40:10.597Z,8.38
2019-03-16T21:42:38.789Z,8.38
2019-03-16T21:45:09.441Z,8.39
2019-03-16T21:47:37.632Z,8.46
2019-03-16T21:50:11.580Z,8.46
2019-03-16T21:52:39.774Z,8.46
2019-03-16T21:55:09.519Z,8.47
2019-03-16T21:57:37.714Z,8.46
2019-03-16T22:00:09.020Z,8.56
2019-03-16T22:02:37.215Z,8.61
2019-03-16T22:05:07.059Z,8.62
2019-03-16T22:07:35.263Z,8.66
2019-03-16T22:10:04.234Z,8.70
2019-03-16T22:12:33.608Z,8.69
2019-03-16T22:15:01.816Z,8.69
2019-03-16T22:17:30.008Z,8.69
2019-03-16T22:19:58.217Z,8.70
2019-03-16T22:22:26.418Z,8.70
2019-03-16T22:24:54.623Z,8.70
2019-03-16T22:27:22.815Z,8.73
2019-03-16T22:29:51.027Z,8.77
2019-03-16T22:32:19.214Z,8.78
2019-03-16T22:34:47.407Z,8.83
2019-03-16T22:37:15.617Z,8.81
2019-03-16T22:39:43.806Z,8.83
2019-03-16T22:42:11.999Z,8.81
2019-03-16T22:44:40.201Z,8.82
2019-03-16T22:47:08.395Z,8.85
2019-03-16T22:49:36.595Z,8.84
2019-03-16T22:52:04.784Z,8.87
2019-03-16T22:54:32.984Z,8.84
2019-03-16T22:57:01.191Z,8.89
2019-03-16T22:59:29.378Z,8.95
2019-03-16T23:01:57.566Z,8.95
2019-03-16T23:04:25.778Z,8.94
2019-03-16T23:06:54.030Z,8.95
2019-03-16T23:09:22.231Z,8.98
2019-03-16T23:11:50.415Z,8.97
2019-03-16T23:14:18.629Z,8.95
2019-03-16T23:16:46.814Z,8.96
2019-03-16T23:19:15.009Z,8.98
2019-03-16T23:21:43.210Z,8.97
2019-03-16T23:24:11.420Z,8.97
2019-03-16T23:26:39.614Z,9.00
2019-03-16T23:29:08.276Z,9.03
2019-03-16T23:31:36.481Z,9.03
2019-03-16T23:34:04.670Z,8.97
2019-03-16T23:36:32.878Z,9.01
2019-03-16T23:39:02.379Z,9.03
2019-03-16T23:41:30.652Z,9.04
2019-03-16T23:43:58.846Z,9.05
2019-03-16T23:46:27.056Z,9.02
2019-03-16T23:48:55.239Z,8.99
2019-03-16T23:51:23.442Z,9.02
2019-03-16T23:53:51.646Z,9.02
2019-03-16T23:56:19.836Z,9.00
2019-03-16T23:58:48.035Z,9.04
